createdAt,value
2018-10-18T00:00:11.331Z,64.62
2018-10-18T00:02:53.543Z,65.58
2018-10-18T00:05:43.682Z,66.01
2018-10-18T00:08:19.288Z,65.34
2018-10-18T00:10:54.935Z,65.36
2018-10-18T00:13:30.940Z,64.23
2018-10-18T00:16:06.551Z,65.31
2018-10-18T00:18:42.167Z,66.30
2018-10-18T00:21:18.204Z,66.38
2018-10-18T00:23:53.752Z,66.06
2018-10-18T00:26:29.364Z,66.08
2018-10-18T00:29:05.451Z,67.13
2018-10-18T00:31:40.969Z,67.55
2018-10-18T00:34:16.530Z,67.79
2018-10-18T00:36:52.122Z,69.12
2018-10-18T00:39:27.858Z,68.42
2018-10-18T00:42:03.653Z,67.47
2018-10-18T00:44:39.368Z,66.51
2018-10-18T00:47:14.937Z,65.84
2018-10-18T00:49:50.797Z,65.67
2018-10-18T00:52:26.318Z,65.69
2018-10-18T00:55:02.049Z,65.99
2018-10-18T00:57:37.751Z,65.86
2018-10-18T01:03:09.948Z,67.76
2018-10-18T01:05:45.537Z,68.24
2018-10-18T01:08:21.348Z,68.52
2018-10-18T01:10:56.994Z,66.58
2018-10-18T01:13:32.475Z,65.77
2018-10-18T01:16:08.228Z,64.85
2018-10-18T01:18:44.081Z,64.73
2018-10-18T01:21:19.883Z,65.27
2018-10-18T01:23:55.530Z,66.01
2018-10-18T01:26:31.440Z,67.48
2018-10-18T01:29:07.108Z,67.56
2018-10-18T01:31:42.702Z,68.19
2018-10-18T01:34:18.490Z,72.65
2018-10-18T01:36:54.013Z,73.36
2018-10-18T01:39:30.128Z,71.72
2018-10-18T01:42:06.554Z,71.20
2018-10-18T01:44:42.127Z,71.33
2018-10-18T01:47:18.029Z,72.40
2018-10-18T01:49:53.519Z,74.54
2018-10-18T01:52:29.222Z,75.78
2018-10-18T01:55:05.918Z,76.08
2018-10-18T01:57:41.349Z,76.34
2018-10-18T02:00:29.386Z,76.22
2018-10-18T02:03:05.118Z,75.93
2018-10-18T02:05:41.856Z,76.08
2018-10-18T02:08:17.558Z,74.08
2018-10-18T02:10:53.189Z,74.49
2018-10-18T02:13:28.815Z,74.51
2018-10-18T02:16:05.257Z,74.68
2018-10-18T02:18:40.633Z,74.53
2018-10-18T02:21:16.302Z,73.30
2018-10-18T02:23:52.220Z,72.71
2018-10-18T02:26:27.914Z,73.02
2018-10-18T02:29:03.746Z,73.02
2018-10-18T02:31:39.104Z,73.75
2018-10-18T02:34:14.832Z,73.00
2018-10-18T02:36:50.543Z,73.42
2018-10-18T02:39:25.988Z,75.19
2018-10-18T02:42:02.507Z,75.48
2018-10-18T02:44:38.253Z,77.69
2018-10-18T02:47:13.810Z,78.53
2018-10-18T02:49:49.407Z,78.29
2018-10-18T02:52:25.340Z,79.02
2018-10-18T02:55:01.075Z,77.63
2018-10-18T02:57:36.612Z,77.91
2018-10-18T03:03:02.032Z,76.41
2018-10-18T03:05:37.555Z,76.68
2018-10-18T03:08:12.884Z,77.11
2018-10-18T03:10:48.629Z,78.08
2018-10-18T03:13:31.243Z,78.11
2018-10-18T03:16:08.218Z,77.86
2018-10-18T03:18:44.029Z,77.99
2018-10-18T03:21:19.797Z,78.75
2018-10-18T03:23:55.558Z,79.21
2018-10-18T03:26:31.604Z,80.57
2018-10-18T03:29:07.017Z,81.04
2018-10-18T03:31:42.816Z,82.28
2018-10-18T03:34:18.820Z,82.94
2018-10-18T03:36:55.463Z,83.10
2018-10-18T03:39:31.328Z,83.31
2018-10-18T03:42:07.135Z,83.33
2018-10-18T03:44:43.084Z,83.83
2018-10-18T03:47:18.597Z,84.06
2018-10-18T03:49:54.146Z,84.96
2018-10-18T03:52:29.575Z,84.44
2018-10-18T03:55:06.421Z,84.26
2018-10-18T03:57:42.053Z,84.26
2018-10-18T04:00:39.928Z,84.09
2018-10-18T04:03:15.454Z,84.89
2018-10-18T04:05:51.262Z,85.08
2018-10-18T04:08:26.980Z,84.59
2018-10-18T04:11:02.494Z,84.92
2018-10-18T04:13:37.997Z,85.10
2018-10-18T04:16:13.598Z,84.93
2018-10-18T04:18:49.193Z,85.34
2018-10-18T04:21:24.814Z,85.68
2018-10-18T04:24:00.455Z,85.77
2018-10-18T04:26:36.332Z,85.64
2018-10-18T04:29:11.954Z,85.73
2018-10-18T04:31:47.556Z,86.27
2018-10-18T04:34:23.326Z,86.10
2018-10-18T04:36:59.362Z,86.53
2018-10-18T04:39:35.140Z,86.29
2018-10-18T04:42:10.563Z,86.86
2018-10-18T04:44:46.389Z,87.05
2018-10-18T04:47:21.961Z,86.66
2018-10-18T04:49:57.816Z,86.47
2018-10-18T04:52:33.252Z,86.04
2018-10-18T04:55:08.918Z,86.59
2018-10-18T04:57:47.882Z,86.76
2018-10-18T05:00:33.253Z,86.33
2018-10-18T05:03:08.623Z,86.51
2018-10-18T05:05:56.936Z,86.63
2018-10-18T05:08:32.620Z,86.33
2018-10-18T05:11:08.139Z,86.25
2018-10-18T05:13:43.930Z,86.58
2018-10-18T05:16:19.424Z,86.54
2018-10-18T05:18:55.095Z,86.58
2018-10-18T05:21:31.148Z,85.70
2018-10-18T05:24:06.954Z,86.00
2018-10-18T05:26:42.856Z,86.19
2018-10-18T05:29:18.351Z,86.00
2018-10-18T05:31:53.829Z,86.26
2018-10-18T05:34:29.409Z,86.26
2018-10-18T05:37:05.076Z,86.10
2018-10-18T05:39:40.767Z,86.34
2018-10-18T05:42:16.497Z,86.23
2018-10-18T05:44:52.472Z,86.12
2018-10-18T05:47:28.031Z,85.27
2018-10-18T05:50:03.816Z,85.17
2018-10-18T05:52:39.978Z,85.13
2018-10-18T05:58:06.368Z,85.55
2018-10-18T06:00:42.173Z,85.65
2018-10-18T06:03:17.972Z,85.73
2018-10-18T06:05:53.749Z,85.63
2018-10-18T06:08:29.572Z,85.74
2018-10-18T06:11:16.230Z,85.41
2018-10-18T06:13:52.404Z,85.36
2018-10-18T06:16:28.519Z,85.38
2018-10-18T06:19:04.025Z,85.55
2018-10-18T06:21:39.857Z,85.40
2018-10-18T06:24:15.627Z,85.14
2018-10-18T06:26:51.076Z,85.31
2018-10-18T06:29:26.906Z,85.28
2018-10-18T06:32:02.752Z,85.08
2018-10-18T06:34:39.213Z,85.34
2018-10-18T06:37:14.740Z,85.00
2018-10-18T06:39:50.518Z,84.91
2018-10-18T06:42:26.467Z,84.67
2018-10-18T06:45:02.138Z,84.27
2018-10-18T06:47:37.995Z,84.45
2018-10-18T06:53:01.149Z,83.82
2018-10-18T06:55:52.788Z,84.20
2018-10-18T06:58:28.422Z,84.33
2018-10-18T07:01:04.336Z,84.77
2018-10-18T07:03:39.912Z,84.75
2018-10-18T07:06:15.568Z,84.56
2018-10-18T07:08:51.706Z,84.32
2018-10-18T07:11:27.478Z,84.51
2018-10-18T07:14:03.198Z,84.57
2018-10-18T07:16:38.938Z,84.81
2018-10-18T07:19:14.625Z,84.79
2018-10-18T07:21:50.113Z,84.64
2018-10-18T07:24:25.895Z,84.92
2018-10-18T07:27:02.021Z,84.43
2018-10-18T07:29:37.988Z,84.42
2018-10-18T07:32:13.881Z,84.33
2018-10-18T07:34:49.648Z,84.15
2018-10-18T07:37:25.866Z,84.00
2018-10-18T07:40:01.628Z,83.37
2018-10-18T07:42:37.355Z,83.44
2018-10-18T07:45:15.804Z,83.25
2018-10-18T07:48:01.676Z,82.75
2018-10-18T07:50:39.778Z,82.47
2018-10-18T07:53:15.781Z,81.76
2018-10-18T07:55:51.616Z,81.27
2018-10-18T07:58:27.448Z,80.76
2018-10-18T08:01:02.956Z,81.19
2018-10-18T08:03:38.761Z,80.60
2018-10-18T08:09:52.423Z,78.93
2018-10-18T08:12:28.768Z,77.76
2018-10-18T08:15:05.704Z,76.58
2018-10-18T08:17:41.962Z,77.38
2018-10-18T08:23:19.519Z,73.15
2018-10-18T08:25:55.083Z,72.61
2018-10-18T08:28:30.824Z,73.70
2018-10-18T08:31:06.503Z,74.61
2018-10-18T08:33:42.241Z,73.41
2018-10-18T08:36:18.004Z,72.54
2018-10-18T08:38:53.456Z,72.78
2018-10-18T08:41:29.144Z,73.84
2018-10-18T08:44:05.110Z,73.18
2018-10-18T08:46:40.944Z,71.15
2018-10-18T08:49:16.494Z,71.04
2018-10-18T08:51:52.344Z,70.75
2018-10-18T08:54:28.147Z,70.71
2018-10-18T08:57:04.029Z,70.44
2018-10-18T08:59:39.639Z,69.17
2018-10-18T09:02:15.245Z,68.06
2018-10-18T09:04:50.690Z,66.90
2018-10-18T09:07:26.332Z,65.79
2018-10-18T09:10:02.073Z,61.91
2018-10-18T09:12:37.928Z,61.13
2018-10-18T09:15:13.985Z,58.64
2018-10-18T09:17:56.154Z,54.36
2018-10-18T09:20:38.222Z,52.77
2018-10-18T09:23:13.628Z,52.94
2018-10-18T09:25:49.112Z,52.85
2018-10-18T09:28:24.684Z,52.79
2018-10-18T09:31:00.312Z,52.37
2018-10-18T09:33:36.034Z,50.99
2018-10-18T09:36:11.562Z,49.08
2018-10-18T09:38:47.044Z,48.24
2018-10-18T09:41:22.986Z,45.65
2018-10-18T09:43:58.737Z,41.18
2018-10-18T09:46:35.300Z,35.18
2018-10-18T09:49:10.850Z,31.09
2018-10-18T09:51:46.724Z,27.84
2018-10-18T09:54:22.356Z,24.26
2018-10-18T09:56:57.928Z,22.77
2018-10-18T09:59:33.385Z,23.41
2018-10-18T10:02:14.188Z,22.10
2018-10-18T10:04:49.789Z,21.37
2018-10-18T10:07:25.251Z,21.74
2018-10-18T10:10:00.893Z,21.71
2018-10-18T10:12:36.591Z,22.71
2018-10-18T10:15:12.147Z,23.00
2018-10-18T10:17:53.155Z,25.98
2018-10-18T10:20:31.140Z,26.97
2018-10-18T10:23:17.945Z,24.46
2018-10-18T10:25:53.720Z,27.45
2018-10-18T10:28:29.552Z,27.67
2018-10-18T10:31:07.359Z,25.52
2018-10-18T10:33:43.190Z,23.42
2018-10-18T10:36:18.823Z,24.11
2018-10-18T10:38:54.427Z,29.41
2018-10-18T10:41:30.152Z,31.89
2018-10-18T10:44:08.674Z,33.53
2018-10-18T10:46:44.388Z,40.14
2018-10-18T10:49:20.183Z,40.43
2018-10-18T10:51:56.031Z,40.45
2018-10-18T10:54:31.986Z,40.30
2018-10-18T10:57:07.825Z,39.59
2018-10-18T10:59:43.681Z,40.86
2018-10-18T11:02:19.176Z,40.06
2018-10-18T11:04:54.713Z,38.39
2018-10-18T11:07:30.374Z,40.98
2018-10-18T11:10:06.852Z,40.08
2018-10-18T11:12:42.539Z,41.85
2018-10-18T11:15:30.224Z,44.48
2018-10-18T11:18:06.425Z,44.69
2018-10-18T11:20:42.273Z,47.33
2018-10-18T11:23:18.065Z,45.77
2018-10-18T11:25:58.590Z,43.42
2018-10-18T11:28:34.528Z,42.82
2018-10-18T11:31:10.109Z,44.70
2018-10-18T11:33:46.414Z,45.49
2018-10-18T11:36:21.917Z,45.30
2018-10-18T11:38:57.660Z,45.22
2018-10-18T11:41:33.246Z,42.41
2018-10-18T11:44:08.897Z,42.00
2018-10-18T11:46:44.855Z,41.73
2018-10-18T11:49:20.609Z,41.22
2018-10-18T11:51:56.304Z,40.84
2018-10-18T11:54:32.064Z,40.01
2018-10-18T11:57:07.936Z,40.55
2018-10-18T11:59:43.726Z,41.80
2018-10-18T12:02:19.431Z,40.84
2018-10-18T12:04:55.445Z,40.44
2018-10-18T12:07:31.160Z,39.94
2018-10-18T12:10:08.089Z,38.29
2018-10-18T12:12:43.647Z,36.75
2018-10-18T12:15:31.802Z,37.18
2018-10-18T12:18:07.355Z,36.25
2018-10-18T12:20:43.051Z,36.30
2018-10-18T12:23:18.629Z,36.40
2018-10-18T12:25:54.693Z,35.67
2018-10-18T12:28:30.721Z,36.80
2018-10-18T12:31:06.685Z,38.85
2018-10-18T12:33:42.529Z,39.67
2018-10-18T12:36:18.447Z,40.11
2018-10-18T12:38:54.178Z,39.68
2018-10-18T12:41:29.773Z,37.28
2018-10-18T12:44:05.575Z,36.33
2018-10-18T12:46:41.310Z,36.92
2018-10-18T12:49:17.001Z,36.55
2018-10-18T12:51:52.713Z,37.89
2018-10-18T12:54:28.517Z,37.35
2018-10-18T12:57:04.324Z,38.04
2018-10-18T12:59:40.324Z,37.69
2018-10-18T13:02:16.148Z,37.45
2018-10-18T13:04:51.961Z,36.66
2018-10-18T13:07:27.561Z,38.74
2018-10-18T13:10:03.406Z,39.11
2018-10-18T13:12:39.448Z,39.98
2018-10-18T13:15:15.032Z,40.58
2018-10-18T13:17:56.515Z,42.74
2018-10-18T13:20:34.550Z,41.00
2018-10-18T13:23:24.845Z,40.15
2018-10-18T13:26:00.690Z,39.32
2018-10-18T13:28:36.688Z,41.36
2018-10-18T13:31:12.151Z,40.10
2018-10-18T13:33:47.785Z,38.66
2018-10-18T13:36:23.503Z,38.81
2018-10-18T13:38:59.436Z,39.39
2018-10-18T13:41:35.566Z,40.05
2018-10-18T13:44:11.395Z,40.67
2018-10-18T13:46:46.980Z,40.25
2018-10-18T13:49:22.865Z,39.67
2018-10-18T13:51:58.750Z,40.00
2018-10-18T13:54:34.491Z,39.52
2018-10-18T13:57:09.961Z,39.90
2018-10-18T13:59:56.819Z,39.15
2018-10-18T14:02:32.564Z,38.60
2018-10-18T14:05:08.923Z,38.79
2018-10-18T14:07:52.294Z,38.28
2018-10-18T14:10:34.991Z,38.33
2018-10-18T14:13:10.575Z,41.06
2018-10-18T14:15:46.355Z,42.51
2018-10-18T14:18:22.279Z,43.91
2018-10-18T14:20:57.853Z,44.04
2018-10-18T14:23:33.455Z,42.28
2018-10-18T14:26:09.269Z,43.20
2018-10-18T14:28:44.990Z,45.00
2018-10-18T14:31:20.864Z,45.41
2018-10-18T14:33:56.590Z,45.17
2018-10-18T14:36:32.351Z,45.72
2018-10-18T14:39:09.356Z,44.66
2018-10-18T14:41:45.093Z,43.65
2018-10-18T14:44:20.811Z,44.68
2018-10-18T14:46:56.932Z,44.35
2018-10-18T14:49:33.233Z,44.22
2018-10-18T14:52:08.779Z,44.03
2018-10-18T14:54:44.912Z,43.94
2018-10-18T14:57:20.745Z,44.08
2018-10-18T14:59:56.564Z,44.12
2018-10-18T15:02:32.089Z,43.94
2018-10-18T15:05:09.447Z,44.13
2018-10-18T15:07:50.703Z,44.60
2018-10-18T15:10:39.492Z,45.92
2018-10-18T15:13:15.116Z,47.03
2018-10-18T15:15:51.339Z,48.18
2018-10-18T15:18:26.990Z,48.01
2018-10-18T15:21:02.979Z,47.28
2018-10-18T15:23:38.919Z,46.61
2018-10-18T15:26:14.646Z,46.65
2018-10-18T15:28:50.337Z,46.24
2018-10-18T15:31:26.079Z,45.66
2018-10-18T15:34:01.648Z,46.56
2018-10-18T15:36:37.413Z,47.39
2018-10-18T15:39:13.554Z,46.72
2018-10-18T15:41:49.505Z,46.02
2018-10-18T15:44:25.300Z,46.16
2018-10-18T15:47:01.064Z,45.61
2018-10-18T15:49:36.828Z,48.26
2018-10-18T15:52:12.393Z,51.62
2018-10-18T15:54:48.327Z,56.01
2018-10-18T15:57:24.228Z,57.66
2018-10-18T15:59:59.807Z,58.46
2018-10-18T16:02:35.712Z,57.04
2018-10-18T16:05:11.601Z,55.41
2018-10-18T16:07:53.175Z,55.19
2018-10-18T16:10:34.908Z,53.96
2018-10-18T16:13:10.576Z,52.67
2018-10-18T16:15:49.790Z,51.89
2018-10-18T16:18:25.547Z,52.04
2018-10-18T16:21:01.236Z,52.44
2018-10-18T16:23:37.223Z,51.87
2018-10-18T16:26:13.350Z,52.75
2018-10-18T16:28:49.150Z,53.57
2018-10-18T16:31:25.274Z,55.33
2018-10-18T16:34:01.006Z,57.30
2018-10-18T16:36:36.685Z,59.74
2018-10-18T16:39:13.796Z,62.17
2018-10-18T16:41:49.673Z,63.27
2018-10-18T16:44:25.402Z,63.55
2018-10-18T16:47:01.266Z,64.29
2018-10-18T16:49:36.902Z,66.13
2018-10-18T16:52:12.463Z,65.69
2018-10-18T16:54:48.413Z,61.18
2018-10-18T16:57:24.076Z,58.67
2018-10-18T16:59:59.684Z,59.35
2018-10-18T17:02:35.588Z,61.01
2018-10-18T17:05:11.295Z,62.94
2018-10-18T17:07:53.192Z,64.53
2018-10-18T17:10:29.017Z,65.36
2018-10-18T17:13:05.484Z,66.06
2018-10-18T17:15:51.321Z,66.04
2018-10-18T17:18:26.937Z,65.77
2018-10-18T17:21:02.861Z,66.19
2018-10-18T17:23:38.813Z,66.79
2018-10-18T17:26:14.921Z,68.02
2018-10-18T17:28:50.862Z,68.81
2018-10-18T17:31:26.616Z,69.14
2018-10-18T17:34:02.207Z,68.91
2018-10-18T17:36:37.817Z,66.99
2018-10-18T17:39:13.281Z,67.99
2018-10-18T17:41:48.706Z,68.09
2018-10-18T17:44:24.281Z,68.58
2018-10-18T17:47:00.024Z,68.86
2018-10-18T17:49:35.770Z,69.64
2018-10-18T17:52:11.690Z,69.52
2018-10-18T17:54:47.779Z,68.66
2018-10-18T17:57:23.433Z,68.35
2018-10-18T17:59:59.182Z,70.34
2018-10-18T18:02:35.786Z,71.15
2018-10-18T18:05:13.736Z,71.99
2018-10-18T18:07:51.236Z,72.69
2018-10-18T18:10:27.140Z,74.24
2018-10-18T18:13:09.713Z,73.14
2018-10-18T18:15:45.221Z,72.17
2018-10-18T18:18:21.036Z,72.35
2018-10-18T18:20:56.664Z,70.28
2018-10-18T18:23:32.224Z,69.49
2018-10-18T18:26:07.849Z,67.74
2018-10-18T18:28:43.278Z,66.54
2018-10-18T18:31:18.864Z,71.25
2018-10-18T18:33:59.067Z,73.72
2018-10-18T18:36:34.447Z,74.85
2018-10-18T18:39:11.347Z,76.07
2018-10-18T18:41:47.257Z,72.30
2018-10-18T18:44:23.027Z,71.45
2018-10-18T18:46:58.946Z,72.71
2018-10-18T18:49:34.297Z,73.25
2018-10-18T18:52:10.406Z,72.54
2018-10-18T18:54:45.824Z,72.64
2018-10-18T18:57:35.709Z,72.05
2018-10-18T19:00:11.426Z,72.28
2018-10-18T19:02:52.958Z,72.88
2018-10-18T19:05:39.597Z,74.17
2018-10-18T19:08:15.066Z,75.50
2018-10-18T19:10:50.533Z,76.01
2018-10-18T19:13:26.059Z,76.65
2018-10-18T19:16:01.803Z,76.38
2018-10-18T19:18:37.356Z,76.92
2018-10-18T19:21:13.566Z,77.08
2018-10-18T19:23:49.529Z,77.63
2018-10-18T19:26:25.294Z,77.58
2018-10-18T19:29:01.233Z,77.49
2018-10-18T19:31:37.389Z,77.22
2018-10-18T19:34:12.931Z,76.86
2018-10-18T19:36:48.841Z,76.92
2018-10-18T19:39:24.313Z,77.59
2018-10-18T19:42:01.143Z,76.82
2018-10-18T19:44:37.299Z,76.96
2018-10-18T19:47:13.673Z,75.99
2018-10-18T19:49:49.067Z,75.76
2018-10-18T19:52:25.722Z,75.81
2018-10-18T19:55:02.612Z,75.92
2018-10-18T19:57:38.413Z,75.93
2018-10-18T20:00:14.121Z,75.72
2018-10-18T20:02:49.679Z,75.52
2018-10-18T20:05:25.510Z,75.64
2018-10-18T20:08:02.765Z,75.51
2018-10-18T20:10:39.344Z,75.45
2018-10-18T20:13:15.497Z,76.17
2018-10-18T20:15:51.309Z,75.96
2018-10-18T20:18:27.215Z,75.98
2018-10-18T20:21:02.970Z,75.45
2018-10-18T20:23:39.072Z,75.63
2018-10-18T20:26:15.048Z,75.43
2018-10-18T20:28:50.949Z,75.21
2018-10-18T20:31:27.033Z,74.96
2018-10-18T20:34:02.761Z,74.79
2018-10-18T20:36:38.931Z,74.55
2018-10-18T20:39:14.648Z,74.83
2018-10-18T20:41:50.997Z,75.36
2018-10-18T20:44:26.917Z,75.36
2018-10-18T20:47:03.999Z,75.62
2018-10-18T20:49:39.789Z,75.39
2018-10-18T20:52:15.299Z,75.89
2018-10-18T20:54:51.295Z,75.63
2018-10-18T21:06:45.129Z,76.85
2018-10-18T21:09:21.005Z,76.55
2018-10-18T21:11:56.750Z,77.06
2018-10-18T21:14:32.569Z,77.15
2018-10-18T21:17:08.031Z,77.11
2018-10-18T21:19:43.749Z,77.07
2018-10-18T21:22:19.632Z,77.08
2018-10-18T21:24:55.423Z,77.49
2018-10-18T21:27:31.245Z,78.00
2018-10-18T21:30:07.397Z,78.04
2018-10-18T21:32:42.815Z,78.06
2018-10-18T21:35:45.439Z,77.95
2018-10-18T21:38:21.112Z,77.53
2018-10-18T21:40:56.940Z,77.13
2018-10-18T21:43:32.572Z,77.05
2018-10-18T21:46:08.034Z,75.86
2018-10-18T21:48:43.998Z,74.86
2018-10-18T21:51:19.862Z,73.08
2018-10-18T21:53:55.324Z,73.25
2018-10-18T21:56:30.891Z,74.02
2018-10-18T21:59:06.479Z,75.06
2018-10-18T22:01:42.458Z,74.98
2018-10-18T22:04:18.543Z,74.03
2018-10-18T22:06:53.965Z,74.06
2018-10-18T22:09:29.712Z,75.00
2018-10-18T22:12:06.141Z,75.19
2018-10-18T22:14:41.835Z,74.74
2018-10-18T22:17:17.637Z,75.38
2018-10-18T22:19:53.341Z,75.34
2018-10-18T22:22:28.894Z,76.10
2018-10-18T22:25:04.845Z,76.26
2018-10-18T22:27:40.451Z,76.83
2018-10-18T22:30:16.129Z,76.98
2018-10-18T22:32:51.764Z,76.98
2018-10-18T22:35:32.512Z,77.22
2018-10-18T22:38:08.519Z,76.79
2018-10-18T22:40:54.213Z,77.49
2018-10-18T22:43:30.518Z,77.25
2018-10-18T22:46:06.575Z,77.68
2018-10-18T22:48:42.037Z,77.60
2018-10-18T22:51:17.450Z,77.80
2018-10-18T22:53:53.848Z,77.66
2018-10-18T22:56:29.501Z,77.54
2018-10-18T22:59:05.681Z,77.75
2018-10-18T23:01:41.348Z,78.00
2018-10-18T23:04:17.116Z,78.17
2018-10-18T23:06:52.646Z,78.34
2018-10-18T23:09:28.189Z,78.45
2018-10-18T23:12:03.756Z,79.30
2018-10-18T23:14:39.105Z,79.49
2018-10-18T23:17:14.589Z,79.52
2018-10-18T23:19:50.236Z,79.68
2018-10-18T23:22:25.765Z,80.06
2018-10-18T23:25:01.909Z,79.79
2018-10-18T23:27:37.429Z,79.80
2018-10-18T23:30:15.573Z,79.60
2018-10-18T23:33:03.297Z,79.57
2018-10-18T23:35:45.011Z,80.24
2018-10-18T23:38:20.649Z,80.01
2018-10-18T23:40:56.406Z,79.39
2018-10-18T23:43:31.873Z,79.59
2018-10-18T23:46:07.445Z,79.24
2018-10-18T23:48:43.745Z,79.04
2018-10-18T23:51:19.401Z,79.51
2018-10-18T23:53:54.892Z,79.37
2018-10-18T23:56:30.514Z,79.67
2018-10-18T23:59:07.208Z,79.59
